Private Wetterstation Nrnberg - Katzwang
Wetterdaten: September 2013
Datum Temp. A. Feuchte A. Luftdruck Regen Wind Richtung Taupunkt Windchill Windben
01.09.2013 15,9 C 64 % 1022 hPa 0,0 l/m 1,7 km/h W-NW 9,1 C 15,9 C 2,7 km/h
02.09.2013 16,8 C 61 % 1022 hPa 0,0 l/m 4,8 km/h W-NW 9,2 C 16,8 C 5,8 km/h
03.09.2013 19,3 C 68 % 1024 hPa 0,0 l/m 2,4 km/h W-NW 13,0 C 19,1 C 3,4 km/h
04.09.2013 19,6 C 68 % 1020 hPa 0,0 l/m 2,2 km/h O 13,2 C 19,5 C 3,2 km/h
05.09.2013 20,3 C 65 % 1014 hPa 0,0 l/m 0,0 km/h NO 13,1 C 20,3 C 1,0 km/h
06.09.2013 20,7 C 62 % 1011 hPa 0,0 l/m 2,0 km/h NO 12,7 C 20,6 C 3,0 km/h
07.09.2013 20,9 C 67 % 1014 hPa 0,0 l/m 1,2 km/h N-NO 14,4 C 20,9 C 2,2 km/h
08.09.2013 19,5 C 75 % 1015 hPa 9,8 l/m 0,0 km/h W-NW 14,8 C 19,5 C 1,0 km/h
09.09.2013 14,6 C 73 % 1016 hPa 16,1 l/m 1,4 km/h W-NW 9,6 C 14,6 C 2,4 km/h
10.09.2013 13,2 C 79 % 1013 hPa 3,6 l/m 6,1 km/h NO 9,5 C 12,4 C 7,2 km/h
11.09.2013 11,6 C 80 % 1012 hPa 4,1 l/m 4,5 km/h W-NW 8,2 C 10,5 C 5,5 km/h
12.09.2013 12,3 C 81 % 1013 hPa 22,3 l/m 0,5 km/h W-NW 9,0 C 12,3 C 1,5 km/h
13.09.2013 13,0 C 83 % 1018 hPa 12,4 l/m 0,0 km/h W-NW 10,2 C 13,0 C 1,0 km/h
14.09.2013 14,4 C 84 % 1013 hPa 2,1 l/m 1,4 km/h NO 11,7 C 14,4 C 2,4 km/h
15.09.2013 15,3 C 83 % 1008 hPa 3,1 l/m 0,0 km/h W-NW 12,4 C 15,3 C 1,0 km/h
16.09.2013 11,7 C 83 % 1002 hPa 7,3 l/m 3,4 km/h N-NO 8,9 C 11,5 C 4,4 km/h
17.09.2013 10,0 C 76 % 1005 hPa 1,0 l/m 7,9 km/h W-NW 5,8 C 8,1 C 12,8 km/h
18.09.2013 12,0 C 84 % 999 hPa 15,5 l/m 5,1 km/h W-NW 9,3 C 10,9 C 8,7 km/h
19.09.2013 11,1 C 79 % 1011 hPa 0,0 l/m 2,2 km/h W-NW 7,5 C 11,1 C 3,2 km/h
20.09.2013 12,4 C 82 % 1015 hPa 0,5 l/m 0,7 km/h W-NW 9,5 C 12,4 C 1,7 km/h
21.09.2013 12,2 C 78 % 1024 hPa 0,5 l/m 0,0 km/h W-NW 8,5 C 12,2 C 1,0 km/h
22.09.2013 13,9 C 76 % 1025 hPa 0,0 l/m 0,7 km/h N-NO 9,5 C 13,9 C 1,7 km/h
23.09.2013 14,9 C 76 % 1021 hPa 0,0 l/m 1,2 km/h N-NW 10,5 C 14,9 C 2,2 km/h
24.09.2013 14,9 C 75 % 1013 hPa 0,0 l/m 0,0 km/h NO 10,3 C 14,9 C 1,0 km/h
25.09.2013 14,8 C 78 % 1010 hPa 0,0 l/m 0,9 km/h NO 10,9 C 14,8 C 1,9 km/h
26.09.2013 15,2 C 78 % 1012 hPa 0,5 l/m 2,2 km/h W-NW 11,2 C 14,9 C 3,2 km/h
27.09.2013 12,4 C 75 % 1014 hPa 0,0 l/m 1,5 km/h N-NO 8,1 C 12,4 C 2,5 km/h
28.09.2013 11,6 C 71 % 1012 hPa 0,0 l/m 7,8 km/h NO 6,2 C 9,9 C 13,6 km/h
Min-Datum 28.09.13 06.09.13 18.09.13 14 Tage 01.09.13 - 28.09.13 17.09.13 01.09.13
Min-Zeit 07:30 16:20 06:20 - 00:00 - 07:30 03:50 00:00
Minimum 5,1 C 37 % 995 hPa - 0,0 km/h - 2,3 C 1,7 C 1,0 km/h
Max-Datum 06.09.13 14.09.13 21.09.13 12.09.13 17.09.13 - 07.09.13 06.09.13 17.09.13
Max-Zeit 15:20 07:00 21:40 04:30 13:30 - 11:20 15:20 13:30
Maximum 30,1 C 85 % 1026 hPa 22,3 l/m 39,7 km/h
W-NW
- 18,0 C 30,1 C 48,9 km/h
W-NW
Durchschnitt 14,8 C 75 % 1014 hPa #98,9 l/m 2,2 km/h W-NW 10,2 C 14,5 C 3,6 km/h

Durchschnitt Minimum Temp.11,0 C
Durchschnitt Maximum Temp.19,4 C